SANR

Termas De Rio Ho Airport

Termas De Rio Ho, Argentina
TAF SANR 161700Z 1618/1718 32005KT 6000 SCT040 TX19/1718Z TN07/1710Z BECMG 1700/1704 16010KT 9999 BKN030 PROB30 TEMPO 1702/1706 14005KT 3000 DZ -RA BR SCT008 OVC020
Issued Valid From Valid To
Jul-16 @ 17:00 UTC
(3 hours ago)
Jul-16 @ 18:00 UTC
(2 hours ago)
Jul-17 @ 18:00 UTC
(in 22 hours)
Jul-16 @ 18:00 to Jul-17 @ 00:00
TAF SANR 161700Z 1618/1718 32005KT 6000 SCT040 TX19/1718Z TN07/1710Z
Wind Visibility Clouds
320° at 5 knots 6,003 meters
  • Scattered at 4,000' AGL
Becoming Jul-17 @ 00:00 to Jul-17 @ 18:00
BECMG 1700/1704 16010KT 9999 BKN030
Wind Visibility Clouds
160° at 10 knots 10,000+ meters
  • Broken at 3,000' AGL
Temporary  (Probability 30%) Jul-17 @ 02:00 to Jul-17 @ 06:00
PROB30 TEMPO 1702/1706 14005KT 3000 DZ -RA BR SCT008 OVC020
Wind Visibility Clouds Conditions
140° at 5 knots 2,993 meters
  • Scattered at 800' AGL
  • Overcast at 2,000' AGL
  • Drizzle
  • Light Rain
  • Mist
TAF SANR 161700Z 1618/1718 32005KT 6000 SCT040 TX19/1718Z TN07/1710Z BECMG 1700/1704 16010KT 9999 BKN030 PROB30 TEMPO 1702/1706 14005KT 3000 DZ -RA BR SCT008 OVC020
Issued Jul-16 @ 17:00 UTC
(3 hours ago)
Valid From Jul-16 @ 18:00 UTC
(2 hours ago)
Valid To Jul-17 @ 18:00 UTC
(in 22 hours)
Jul-16 @ 18:00 - Jul-17 @ 00:00
Wind Visibility
320° at 5 knots 6,003 meters
Clouds
  • Scattered at 4,000' AGL
Becoming Jul-17 @ 00:00 - Jul-17 @ 18:00
Wind Visibility
160° at 10 knots 10,000+ meters
Clouds
  • Broken at 3,000' AGL
Probability 30% Temporary Jul-17 @ 02:00 - Jul-17 @ 06:00
Wind Visibility
140° at 5 knots 2,993 meters
Clouds
  • Scattered at 800' AGL
  • Overcast at 2,000' AGL
Conditions
  • Drizzle
  • Light Rain
  • Mist